Time;durP1;ratioP1;P1;durP2;ratioP2;P2;SDS_P1;SDS_P2;PMS_P1;PMS_P2;Temp;Humidity;BMP_temperature;BMP_pressure;BME280_temperature;BME280_humidity;BME280_pressure;Samples;Min_cycle;Max_cycle;Signal;HPM_P1;HPM_P2
2023/06/14 00:01:14;;;;;;;;;;;21.80;60.70;;;;;;6291127;28;19916;-73
2023/06/14 00:04:16;;;;;;;;;;;21.70;60.50;;;;;;6294217;28;20011;-73
2023/06/14 00:07:18;;;;;;;;;;;21.80;60.60;;;;;;6293021;28;19912;-74
2023/06/14 00:10:19;;;;;;;;;;;21.80;60.70;;;;;;6294848;28;20242;-73
2023/06/14 00:13:20;;;;;;;;;;;21.70;60.50;;;;;;6293710;28;19912;-73
2023/06/14 00:16:20;;;;;;;;;;;21.70;60.50;;;;;;6293971;28;19917;-73
2023/06/14 00:19:21;;;;;;;;;;;21.80;60.70;;;;;;6293893;28;19912;-73
2023/06/14 00:22:24;;;;;;;;;;;21.80;60.60;;;;;;6294008;28;20402;-74
2023/06/14 00:25:27;;;;;;;;;;;21.70;60.60;;;;;;6293391;28;20007;-73
2023/06/14 00:28:28;;;;;;;;;;;21.80;60.70;;;;;;6293435;28;19942;-74
2023/06/14 00:31:28;;;;;;;;;;;21.80;60.70;;;;;;6293288;28;20398;-73
2023/06/14 00:34:29;;;;;;;;;;;21.70;60.60;;;;;;6293951;28;20078;-73
2023/06/14 00:37:29;;;;;;;;;;;21.70;60.60;;;;;;6292771;28;20463;-73
2023/06/14 00:40:30;;;;;;;;;;;21.70;60.60;;;;;;6293580;28;19909;-73
2023/06/14 00:43:31;;;;;;;;;;;21.70;60.60;;;;;;6293474;28;19960;-73
2023/06/14 00:46:31;;;;;;;;;;;21.70;60.60;;;;;;6293290;28;19916;-73
2023/06/14 00:49:32;;;;;;;;;;;21.70;60.60;;;;;;6293442;28;20011;-73
2023/06/14 00:52:32;;;;;;;;;;;21.80;60.80;;;;;;6293284;28;19930;-72
2023/06/14 00:55:33;;;;;;;;;;;21.70;60.60;;;;;;6292505;28;20015;-73
2023/06/14 00:58:33;;;;;;;;;;;21.80;60.80;;;;;;6293159;28;19912;-73
2023/06/14 01:01:34;;;;;;;;;;;21.80;60.80;;;;;;6293074;28;19919;-73
2023/06/14 01:04:34;;;;;;;;;;;21.80;60.80;;;;;;6292862;28;19924;-73
2023/06/14 01:07:44;;;;;;;;;;;21.80;60.80;;;;;;6293158;28;19912;-73
2023/06/14 01:10:52;;;;;;;;;;;21.70;60.60;;;;;;6293297;28;20001;-73
2023/06/14 01:13:53;;;;;;;;;;;21.70;60.70;;;;;;6292732;28;19916;-73
2023/06/14 01:16:55;;;;;;;;;;;21.70;60.70;;;;;;6292968;28;20425;-73
2023/06/14 01:19:57;;;;;;;;;;;21.80;60.80;;;;;;6300142;28;19913;-73
2023/06/14 01:22:58;;;;;;;;;;;21.70;60.70;;;;;;6301282;28;19955;-73
2023/06/14 01:25:59;;;;;;;;;;;21.70;60.80;;;;;;6301160;28;20363;-73
2023/06/14 01:29:00;;;;;;;;;;;21.70;60.70;;;;;;6301132;28;19909;-73
2023/06/14 01:32:01;;;;;;;;;;;21.70;60.70;;;;;;6301243;28;19915;-73
2023/06/14 01:35:03;;;;;;;;;;;21.70;60.70;;;;;;6301252;28;19962;-73
2023/06/14 01:38:04;;;;;;;;;;;21.70;60.70;;;;;;6300963;28;19919;-73
2023/06/14 01:41:05;;;;;;;;;;;21.70;60.70;;;;;;6301458;28;19924;-73
2023/06/14 01:44:06;;;;;;;;;;;21.70;60.70;;;;;;6300902;28;20286;-73
2023/06/14 01:47:07;;;;;;;;;;;21.70;60.70;;;;;;6300861;28;19913;-73
2023/06/14 01:50:08;;;;;;;;;;;21.70;60.70;;;;;;6300922;28;19912;-73
2023/06/14 01:53:09;;;;;;;;;;;21.70;60.70;;;;;;6300590;28;19909;-74
2023/06/14 01:56:09;;;;;;;;;;;21.70;60.70;;;;;;6300892;28;20016;-73
2023/06/14 01:59:10;;;;;;;;;;;21.70;60.70;;;;;;6300456;28;19913;-73
2023/06/14 02:02:10;;;;;;;;;;;21.70;60.70;;;;;;6297436;28;19920;-73
2023/06/14 02:05:11;;;;;;;;;;;21.70;60.70;;;;;;6301666;28;19920;-73
2023/06/14 02:08:11;;;;;;;;;;;21.70;60.70;;;;;;6300813;28;19909;-74
2023/06/14 02:11:12;;;;;;;;;;;21.70;60.70;;;;;;6301014;28;19908;-73
2023/06/14 02:14:12;;;;;;;;;;;21.70;60.70;;;;;;6300480;28;20010;-73
2023/06/14 02:17:13;;;;;;;;;;;21.70;60.80;;;;;;6300520;28;19935;-73
2023/06/14 02:20:14;;;;;;;;;;;21.70;61.00;;;;;;6299939;28;19953;-73
2023/06/14 02:23:14;;;;;;;;;;;21.70;60.70;;;;;;6299660;28;19909;-73
2023/06/14 02:26:15;;;;;;;;;;;21.70;60.80;;;;;;6300533;28;19954;-74
2023/06/14 02:29:16;;;;;;;;;;;21.70;60.70;;;;;;6299319;28;19915;-72
2023/06/14 02:32:16;;;;;;;;;;;21.70;60.80;;;;;;6296041;28;19909;-72
2023/06/14 02:35:17;;;;;;;;;;;21.70;60.70;;;;;;6296309;28;19941;-73
2023/06/14 02:38:17;;;;;;;;;;;21.70;60.70;;;;;;6296053;28;19912;-73
2023/06/14 02:41:18;;;;;;;;;;;21.70;60.80;;;;;;6294500;28;19951;-73
2023/06/14 02:44:19;;;;;;;;;;;21.70;60.80;;;;;;6296149;28;19935;-72
2023/06/14 02:47:19;;;;;;;;;;;21.70;60.80;;;;;;6296560;28;19908;-73
2023/06/14 02:50:21;;;;;;;;;;;21.70;60.80;;;;;;6296255;28;19908;-74
2023/06/14 02:53:22;;;;;;;;;;;21.70;60.80;;;;;;6295815;28;19952;-72
2023/06/14 02:56:22;;;;;;;;;;;21.70;60.80;;;;;;6295942;28;19920;-73
2023/06/14 02:59:25;;;;;;;;;;;21.70;60.80;;;;;;6296080;28;19920;-73
2023/06/14 03:02:25;;;;;;;;;;;21.70;60.80;;;;;;6295557;28;19921;-73
2023/06/14 03:05:27;;;;;;;;;;;21.70;60.80;;;;;;6295671;28;20385;-73
2023/06/14 03:08:28;;;;;;;;;;;21.70;60.80;;;;;;6295599;28;19908;-73
2023/06/14 03:11:29;;;;;;;;;;;21.70;60.80;;;;;;6295925;28;19952;-73
2023/06/14 03:14:30;;;;;;;;;;;21.70;60.80;;;;;;6294600;28;19919;-73
2023/06/14 03:17:33;;;;;;;;;;;21.70;60.80;;;;;;6295845;28;19908;-73
2023/06/14 03:20:33;;;;;;;;;;;21.70;60.80;;;;;;6294861;28;20414;-73
2023/06/14 03:23:34;;;;;;;;;;;21.70;60.80;;;;;;6295102;28;20050;-73
2023/06/14 03:26:36;;;;;;;;;;;21.70;60.80;;;;;;6294918;28;19982;-73
2023/06/14 03:29:37;;;;;;;;;;;21.70;60.80;;;;;;6295296;28;20355;-73
2023/06/14 03:32:37;;;;;;;;;;;21.70;60.90;;;;;;6295523;28;19908;-73
2023/06/14 03:35:38;;;;;;;;;;;21.70;60.80;;;;;;6294850;28;19924;-73
2023/06/14 03:38:38;;;;;;;;;;;21.70;60.80;;;;;;6294980;28;19917;-73
2023/06/14 03:41:39;;;;;;;;;;;21.70;60.80;;;;;;6294773;28;20007;-73
2023/06/14 03:44:39;;;;;;;;;;;21.70;60.80;;;;;;6294503;28;20375;-73
2023/06/14 03:47:40;;;;;;;;;;;21.70;60.80;;;;;;6294575;28;19908;-73
2023/06/14 03:50:42;;;;;;;;;;;21.70;60.80;;;;;;6294263;28;19908;-73
2023/06/14 03:53:43;;;;;;;;;;;21.70;60.80;;;;;;6294002;28;19995;-73
2023/06/14 03:56:43;;;;;;;;;;;21.70;60.80;;;;;;6294540;28;19912;-73
2023/06/14 04:03:24;;;;;;;;;;;21.70;60.80;;;;;;6294260;28;19920;-73
2023/06/14 04:06:31;;;;;;;;;;;21.70;60.80;;;;;;6293243;28;19920;-73
2023/06/14 04:09:32;;;;;;;;;;;21.70;60.80;;;;;;6294159;28;19914;-73
2023/06/14 04:12:32;;;;;;;;;;;21.70;60.80;;;;;;6294060;28;19912;-73
2023/06/14 04:15:33;;;;;;;;;;;21.70;60.80;;;;;;6293686;28;19952;-73
2023/06/14 04:18:34;;;;;;;;;;;21.70;60.80;;;;;;6293639;28;20334;-73
2023/06/14 04:21:34;;;;;;;;;;;21.70;60.80;;;;;;6294294;28;19962;-73
2023/06/14 04:24:35;;;;;;;;;;;21.70;60.80;;;;;;6291659;28;20397;-73
2023/06/14 04:27:36;;;;;;;;;;;21.70;60.80;;;;;;6293402;28;19909;-72
2023/06/14 04:30:38;;;;;;;;;;;21.70;60.80;;;;;;6293026;28;19938;-72
2023/06/14 04:33:43;;;;;;;;;;;21.70;60.80;;;;;;6293445;28;19908;-72
2023/06/14 04:36:49;;;;;;;;;;;21.70;60.80;;;;;;6293618;28;19935;-73
2023/06/14 04:39:50;;;;;;;;;;;21.70;60.80;;;;;;6293525;28;19962;-73
2023/06/14 04:42:50;;;;;;;;;;;21.70;60.80;;;;;;6293589;28;19908;-73
2023/06/14 04:45:51;;;;;;;;;;;21.70;60.80;;;;;;6293036;28;19913;-73
2023/06/14 04:48:52;;;;;;;;;;;21.70;60.80;;;;;;6293133;28;19944;-73
2023/06/14 04:51:59;;;;;;;;;;;21.70;60.90;;;;;;6293178;28;19962;-73
2023/06/14 04:54:59;;;;;;;;;;;21.70;60.80;;;;;;6292262;28;20403;-73
2023/06/14 04:58:00;;;;;;;;;;;21.70;60.80;;;;;;6277951;28;19913;-72
2023/06/14 05:01:02;;;;;;;;;;;21.70;60.80;;;;;;6288264;28;19912;-72
2023/06/14 05:04:02;;;;;;;;;;;21.80;60.70;;;;;;6289200;28;20054;-73
2023/06/14 05:07:03;;;;;;;;;;;21.80;60.50;;;;;;6292065;28;20443;-73
2023/06/14 05:10:04;;;;;;;;;;;21.80;60.40;;;;;;6291484;28;20203;-73
2023/06/14 05:13:04;;;;;;;;;;;21.90;60.40;;;;;;6272594;28;19917;-73
2023/06/14 05:16:06;;;;;;;;;;;21.90;60.30;;;;;;6308838;28;19927;-72
2023/06/14 05:19:07;;;;;;;;;;;21.90;60.30;;;;;;6280622;28;20003;-72
2023/06/14 05:22:07;;;;;;;;;;;21.90;60.20;;;;;;6302467;28;20432;-73
2023/06/14 05:25:08;;;;;;;;;;;21.90;60.20;;;;;;6291511;28;19912;-72
2023/06/14 05:28:09;;;;;;;;;;;21.90;60.20;;;;;;6279338;28;20390;-74
2023/06/14 05:31:09;;;;;;;;;;;22.00;60.20;;;;;;6291506;28;19917;-72
2023/06/14 05:34:09;;;;;;;;;;;22.00;60.10;;;;;;6291207;28;19912;-72
2023/06/14 05:37:10;;;;;;;;;;;22.00;60.10;;;;;;6289981;28;19947;-73
2023/06/14 05:40:11;;;;;;;;;;;22.00;60.10;;;;;;6256224;28;20438;-73
2023/06/14 05:43:11;;;;;;;;;;;22.00;60.10;;;;;;6247706;28;19915;-72
2023/06/14 05:46:12;;;;;;;;;;;22.00;60.20;;;;;;6235970;28;19999;-72
2023/06/14 05:49:13;;;;;;;;;;;22.00;60.20;;;;;;6242447;28;20359;-72
2023/06/14 05:52:13;;;;;;;;;;;22.00;60.00;;;;;;6276120;28;19908;-73
2023/06/14 05:55:15;;;;;;;;;;;22.00;60.00;;;;;;6241494;28;19976;-72
2023/06/14 05:58:16;;;;;;;;;;;22.00;60.10;;;;;;6255255;28;20311;-73
2023/06/14 06:01:17;;;;;;;;;;;22.00;60.00;;;;;;6260066;28;20047;-73
2023/06/14 06:04:17;;;;;;;;;;;22.00;60.00;;;;;;6279045;28;19920;-74
2023/06/14 06:07:18;;;;;;;;;;;22.00;60.00;;;;;;6288681;28;19917;-73
2023/06/14 06:10:18;;;;;;;;;;;22.00;60.00;;;;;;6281697;28;20203;-73
2023/06/14 06:13:19;;;;;;;;;;;22.00;60.00;;;;;;6297996;28;19908;-73
2023/06/14 06:16:19;;;;;;;;;;;22.10;60.00;;;;;;6299712;28;19917;-73
2023/06/14 06:19:20;;;;;;;;;;;22.10;59.90;;;;;;6302099;28;19974;-73
2023/06/14 06:22:20;;;;;;;;;;;22.10;59.80;;;;;;6321312;28;19908;-74
2023/06/14 06:25:22;;;;;;;;;;;22.10;59.70;;;;;;6299172;28;19934;-73
2023/06/14 06:28:22;;;;;;;;;;;22.20;59.80;;;;;;6292864;28;19909;-73
2023/06/14 06:31:23;;;;;;;;;;;22.20;59.70;;;;;;6324554;28;19916;-73
2023/06/14 06:34:23;;;;;;;;;;;22.30;59.80;;;;;;6306811;28;20007;-73
2023/06/14 06:37:24;;;;;;;;;;;22.30;59.80;;;;;;6298886;28;20462;-73
2023/06/14 06:40:24;;;;;;;;;;;22.20;59.70;;;;;;6295113;28;19919;-73
2023/06/14 06:43:25;;;;;;;;;;;22.30;59.60;;;;;;6296680;28;19999;-73
2023/06/14 06:46:25;;;;;;;;;;;22.30;59.70;;;;;;6298964;28;19908;-73
2023/06/14 06:49:26;;;;;;;;;;;22.20;59.70;;;;;;6291844;28;20287;-73
2023/06/14 06:52:27;;;;;;;;;;;22.20;59.70;;;;;;6274086;28;20010;-73
2023/06/14 06:55:27;;;;;;;;;;;22.20;59.70;;;;;;6283932;28;19956;-73
2023/06/14 06:58:28;;;;;;;;;;;22.20;59.80;;;;;;6282047;28;19999;-72
2023/06/14 07:01:28;;;;;;;;;;;22.20;59.80;;;;;;6296474;28;20346;-74
2023/06/14 07:04:29;;;;;;;;;;;22.20;59.80;;;;;;6293466;28;20349;-73
2023/06/14 07:07:32;;;;;;;;;;;22.20;59.80;;;;;;6280969;28;20370;-73
2023/06/14 07:10:33;;;;;;;;;;;22.20;59.80;;;;;;6298486;28;20268;-73
2023/06/14 07:13:33;;;;;;;;;;;22.20;59.80;;;;;;6298410;28;19966;-73
2023/06/14 07:16:34;;;;;;;;;;;22.20;59.80;;;;;;6278358;28;19943;-73
2023/06/14 07:19:34;;;;;;;;;;;22.20;59.80;;;;;;6294345;28;19913;-73
2023/06/14 07:22:35;;;;;;;;;;;22.20;59.90;;;;;;6313117;28;19916;-73
2023/06/14 07:25:35;;;;;;;;;;;22.20;59.80;;;;;;6311088;28;20382;-73
2023/06/14 07:28:36;;;;;;;;;;;22.20;59.80;;;;;;6317812;28;19916;-73
2023/06/14 07:31:36;;;;;;;;;;;22.20;60.60;;;;;;6281007;28;19971;-73
2023/06/14 07:34:37;;;;;;;;;;;22.20;59.80;;;;;;6281132;28;20362;-73
2023/06/14 07:37:38;;;;;;;;;;;22.20;60.80;;;;;;6285010;28;19935;-73
2023/06/14 07:40:38;;;;;;;;;;;22.20;59.80;;;;;;6294128;28;19934;-73
2023/06/14 07:43:39;;;;;;;;;;;22.20;59.90;;;;;;6297645;28;19970;-73
2023/06/14 07:46:40;;;;;;;;;;;22.20;59.80;;;;;;6297266;28;19913;-73
2023/06/14 07:49:41;;;;;;;;;;;22.20;59.90;;;;;;6297697;28;20283;-73
2023/06/14 07:52:41;;;;;;;;;;;22.20;59.80;;;;;;6296158;28;19912;-73
2023/06/14 07:55:43;;;;;;;;;;;22.20;59.80;;;;;;6296711;28;20379;-73
2023/06/14 07:58:43;;;;;;;;;;;22.20;59.80;;;;;;6297093;28;19920;-74
2023/06/14 08:01:47;;;;;;;;;;;22.20;59.80;;;;;;6281901;28;20659;-73
2023/06/14 08:04:48;;;;;;;;;;;22.20;60.20;;;;;;6282103;28;20013;-73
2023/06/14 08:07:49;;;;;;;;;;;22.20;59.90;;;;;;6283608;28;19912;-73
2023/06/14 08:10:49;;;;;;;;;;;22.20;59.80;;;;;;6277335;28;19962;-73
2023/06/14 08:13:49;;;;;;;;;;;22.20;59.80;;;;;;6272730;28;19916;-73
2023/06/14 08:16:50;;;;;;;;;;;22.20;59.80;;;;;;6296483;28;20333;-73
2023/06/14 08:19:51;;;;;;;;;;;22.20;59.80;;;;;;6296725;28;19945;-73
2023/06/14 08:22:55;;;;;;;;;;;22.20;59.80;;;;;;6276452;28;19908;-73
2023/06/14 08:25:55;;;;;;;;;;;22.20;59.80;;;;;;6284575;28;19917;-74
2023/06/14 08:28:56;;;;;;;;;;;22.20;59.80;;;;;;6270917;28;20456;-73
2023/06/14 08:31:56;;;;;;;;;;;22.20;59.80;;;;;;6295271;28;19916;-73
2023/06/14 08:34:57;;;;;;;;;;;22.20;59.80;;;;;;6296539;28;20478;-73
2023/06/14 08:37:57;;;;;;;;;;;22.20;59.80;;;;;;6295846;28;19920;-73
2023/06/14 08:40:59;;;;;;;;;;;22.30;59.90;;;;;;6294209;28;19932;-73
2023/06/14 08:43:59;;;;;;;;;;;22.20;59.80;;;;;;6271569;28;20298;-73
2023/06/14 08:47:00;;;;;;;;;;;22.20;59.70;;;;;;6293917;28;19950;-73
2023/06/14 08:50:01;;;;;;;;;;;22.30;59.80;;;;;;6294501;28;19908;-73
2023/06/14 08:53:02;;;;;;;;;;;22.20;59.90;;;;;;6271535;28;20287;-73
2023/06/14 08:56:04;;;;;;;;;;;22.20;59.70;;;;;;6293191;28;19919;-72
2023/06/14 08:59:05;;;;;;;;;;;22.20;59.70;;;;;;6271672;28;20020;-74
2023/06/14 09:02:06;;;;;;;;;;;22.20;59.70;;;;;;6281787;28;20290;-73
2023/06/14 09:05:08;;;;;;;;;;;22.20;59.70;;;;;;6296218;28;19921;-73
2023/06/14 09:08:09;;;;;;;;;;;22.20;59.70;;;;;;6296821;28;19968;-73
2023/06/14 09:11:12;;;;;;;;;;;22.20;59.70;;;;;;6296110;28;19909;-73
2023/06/14 09:14:13;;;;;;;;;;;22.20;59.70;;;;;;6295381;28;19913;-74
2023/06/14 09:17:13;;;;;;;;;;;22.30;59.80;;;;;;6295392;28;20432;-74
2023/06/14 09:20:17;;;;;;;;;;;22.20;59.70;;;;;;6296114;28;19919;-73
2023/06/14 09:23:22;;;;;;;;;;;22.20;59.70;;;;;;6294727;28;19909;-74
2023/06/14 09:26:23;;;;;;;;;;;22.20;59.70;;;;;;6294989;28;19909;-72
2023/06/14 09:29:23;;;;;;;;;;;22.20;59.70;;;;;;6294847;28;19919;-73
2023/06/14 09:32:24;;;;;;;;;;;22.20;59.70;;;;;;6294385;28;20415;-73
2023/06/14 09:35:25;;;;;;;;;;;22.20;59.70;;;;;;6294697;28;19916;-72
2023/06/14 09:38:26;;;;;;;;;;;22.30;59.80;;;;;;6280641;28;19913;-73
2023/06/14 09:41:45;;;;;;;;;;;22.20;59.70;;;;;;6292915;28;20007;-73
2023/06/14 09:44:47;;;;;;;;;;;22.20;59.70;;;;;;6298820;28;19915;-73
2023/06/14 09:47:51;;;;;;;;;;;22.30;59.80;;;;;;6300314;28;19908;-74
2023/06/14 09:50:51;;;;;;;;;;;22.30;59.80;;;;;;6300242;28;20025;-74
2023/06/14 09:53:52;;;;;;;;;;;22.20;59.70;;;;;;6297465;28;20041;-72
2023/06/14 09:56:53;;;;;;;;;;;22.20;59.70;;;;;;6298574;28;20384;-73
2023/06/14 09:59:57;;;;;;;;;;;22.20;59.70;;;;;;6299936;28;19912;-72
2023/06/14 10:03:01;;;;;;;;;;;22.20;59.70;;;;;;6295472;28;19920;-73
2023/06/14 10:06:02;;;;;;;;;;;22.20;59.70;;;;;;6279063;28;19908;-73
2023/06/14 10:09:03;;;;;;;;;;;22.20;59.70;;;;;;6299843;28;19909;-72
2023/06/14 10:12:05;;;;;;;;;;;22.20;59.70;;;;;;6299833;28;20270;-73
2023/06/14 10:15:08;;;;;;;;;;;22.20;59.70;;;;;;6278838;28;19917;-73
2023/06/14 10:18:14;;;;;;;;;;;22.20;59.70;;;;;;6290536;28;19913;-73
2023/06/14 10:21:17;;;;;;;;;;;22.20;59.70;;;;;;6278361;28;20405;-73
2023/06/14 10:24:19;;;;;;;;;;;22.20;59.70;;;;;;6296624;28;20347;-73
2023/06/14 10:27:23;;;;;;;;;;;22.30;59.80;;;;;;6299820;28;20002;-73
2023/06/14 10:30:25;;;;;;;;;;;22.30;59.80;;;;;;6280195;28;20006;-73
2023/06/14 10:33:26;;;;;;;;;;;22.20;59.70;;;;;;6294096;28;20007;-73
2023/06/14 10:36:35;;;;;;;;;;;22.30;59.80;;;;;;6299447;28;21421;-73
2023/06/14 10:39:38;;;;;;;;;;;22.20;59.80;;;;;;6284996;28;19952;-73
2023/06/14 10:42:50;;;;;;;;;;;22.20;59.80;;;;;;6299455;28;19952;-73
2023/06/14 10:46:10;;;;;;;;;;;22.20;59.80;;;;;;6298921;28;19909;-73
2023/06/14 10:49:10;;;;;;;;;;;22.20;59.90;;;;;;6298716;28;19959;-73
2023/06/14 10:52:16;;;;;;;;;;;22.20;59.90;;;;;;6285174;28;20344;-73
2023/06/14 10:55:18;;;;;;;;;;;22.20;60.00;;;;;;6298294;28;19912;-73
2023/06/14 10:58:18;;;;;;;;;;;22.20;60.00;;;;;;6299306;28;20015;-73
2023/06/14 11:01:23;;;;;;;;;;;22.20;60.00;;;;;;6298579;28;19915;-73
2023/06/14 11:04:31;;;;;;;;;;;22.10;60.00;;;;;;6298148;28;19974;-73
2023/06/14 11:07:47;;;;;;;;;;;22.20;59.90;;;;;;6298560;28;19951;-73
2023/06/14 11:10:47;;;;;;;;;;;22.20;59.80;;;;;;6297832;28;19912;-72
2023/06/14 11:13:48;;;;;;;;;;;22.20;59.90;;;;;;6298338;28;19923;-73
2023/06/14 11:16:49;;;;;;;;;;;22.30;60.00;;;;;;6298371;28;19913;-73
2023/06/14 11:19:50;;;;;;;;;;;22.20;59.90;;;;;;6298000;28;19920;-73
2023/06/14 11:22:50;;;;;;;;;;;22.20;60.00;;;;;;6298003;28;19908;-73
2023/06/14 11:25:51;;;;;;;;;;;22.20;60.00;;;;;;6282589;28;19909;-73
2023/06/14 11:28:54;;;;;;;;;;;22.20;59.90;;;;;;6289340;28;19908;-73
2023/06/14 11:31:55;;;;;;;;;;;22.20;59.90;;;;;;6274921;28;19913;-73
2023/06/14 11:34:56;;;;;;;;;;;22.20;60.00;;;;;;6296378;28;20012;-73
2023/06/14 11:37:57;;;;;;;;;;;22.10;60.00;;;;;;6297781;28;19913;-73
2023/06/14 11:41:00;;;;;;;;;;;22.10;60.00;;;;;;6296888;28;19919;-73
2023/06/14 11:44:02;;;;;;;;;;;22.10;60.00;;;;;;6297716;28;19916;-73
2023/06/14 11:47:03;;;;;;;;;;;22.10;60.10;;;;;;6281889;28;19912;-73
2023/06/14 11:50:04;;;;;;;;;;;22.10;60.10;;;;;;6279089;28;20417;-73
2023/06/14 11:53:10;;;;;;;;;;;22.10;60.30;;;;;;6278620;28;19959;-73
2023/06/14 11:56:11;;;;;;;;;;;22.10;59.90;;;;;;6296964;28;20028;-72
2023/06/14 11:59:13;;;;;;;;;;;22.20;59.90;;;;;;6294043;28;19912;-72
2023/06/14 12:02:14;;;;;;;;;;;22.30;59.90;;;;;;6296715;28;20013;-73
2023/06/14 12:05:14;;;;;;;;;;;22.40;59.70;;;;;;6291888;28;20376;-73
2023/06/14 12:08:17;;;;;;;;;;;22.40;60.40;;;;;;6277775;28;19919;-72
2023/06/14 12:11:17;;;;;;;;;;;22.40;61.20;;;;;;6296528;28;19913;-73
2023/06/14 12:14:18;;;;;;;;;;;22.40;61.70;;;;;;6293659;28;20717;-72
2023/06/14 12:17:19;;;;;;;;;;;22.40;61.20;;;;;;6287399;28;20318;-73
2023/06/14 12:20:21;;;;;;;;;;;22.40;61.00;;;;;;6290881;28;19951;-74
2023/06/14 12:23:22;;;;;;;;;;;22.30;60.90;;;;;;6295452;28;20452;-73
2023/06/14 12:26:24;;;;;;;;;;;22.30;60.80;;;;;;6295263;28;19993;-73
2023/06/14 12:29:25;;;;;;;;;;;22.30;60.60;;;;;;6291879;28;19915;-73
2023/06/14 12:32:25;;;;;;;;;;;22.30;60.50;;;;;;6295486;28;19916;-73
2023/06/14 12:35:26;;;;;;;;;;;22.30;60.50;;;;;;6295269;28;20442;-73
2023/06/14 12:38:26;;;;;;;;;;;22.30;60.50;;;;;;6303399;28;19916;-73
2023/06/14 12:41:27;;;;;;;;;;;22.30;60.40;;;;;;6295440;28;19995;-74
2023/06/14 12:44:28;;;;;;;;;;;22.20;60.20;;;;;;6295511;28;19908;-73
2023/06/14 12:47:28;;;;;;;;;;;22.30;60.20;;;;;;6295068;28;19962;-73
2023/06/14 12:50:29;;;;;;;;;;;22.20;60.10;;;;;;6295212;28;19915;-73
2023/06/14 12:53:29;;;;;;;;;;;22.30;60.10;;;;;;6272689;28;19935;-73
2023/06/14 12:56:30;;;;;;;;;;;22.30;60.20;;;;;;6287944;28;20395;-73
2023/06/14 12:59:32;;;;;;;;;;;22.30;60.10;;;;;;6279364;28;19919;-73
2023/06/14 13:02:33;;;;;;;;;;;22.20;60.10;;;;;;6295183;28;20023;-73
2023/06/14 13:05:34;;;;;;;;;;;22.30;60.20;;;;;;6294786;28;19909;-73
2023/06/14 13:08:34;;;;;;;;;;;22.30;60.20;;;;;;6294957;28;19912;-73
2023/06/14 13:11:36;;;;;;;;;;;22.30;60.10;;;;;;6290289;28;19924;-73
2023/06/14 13:14:37;;;;;;;;;;;22.20;60.70;;;;;;6277427;28;20367;-73
2023/06/14 13:17:38;;;;;;;;;;;22.30;60.10;;;;;;6287677;28;19996;-73
2023/06/14 13:20:39;;;;;;;;;;;22.20;59.90;;;;;;6282250;28;19908;-72
2023/06/14 13:23:39;;;;;;;;;;;22.20;60.00;;;;;;6290309;28;19916;-73
2023/06/14 13:26:40;;;;;;;;;;;22.20;60.00;;;;;;6294559;28;20378;-73
2023/06/14 13:29:41;;;;;;;;;;;22.20;60.00;;;;;;6294102;28;19908;-72
2023/06/14 13:32:42;;;;;;;;;;;22.30;60.10;;;;;;6287685;28;19948;-73
2023/06/14 13:35:42;;;;;;;;;;;22.30;60.00;;;;;;6305214;28;19916;-73
2023/06/14 13:38:43;;;;;;;;;;;22.30;59.90;;;;;;6295026;28;20378;-73
2023/06/14 13:41:43;;;;;;;;;;;22.30;59.90;;;;;;6274942;28;19920;-72
2023/06/14 13:44:44;;;;;;;;;;;22.30;60.00;;;;;;6294721;28;19931;-73
2023/06/14 13:47:44;;;;;;;;;;;22.30;59.90;;;;;;6272400;28;19984;-73
2023/06/14 13:50:46;;;;;;;;;;;22.30;60.00;;;;;;6282349;28;19958;-72
2023/06/14 13:53:48;;;;;;;;;;;22.30;60.00;;;;;;6294789;28;19909;-72
2023/06/14 13:56:49;;;;;;;;;;;22.20;60.00;;;;;;6294465;28;19917;-72
2023/06/14 13:59:49;;;;;;;;;;;22.20;60.00;;;;;;6293294;28;19908;-73
2023/06/14 14:02:50;;;;;;;;;;;22.20;60.10;;;;;;6288166;28;19913;-72
2023/06/14 14:05:50;;;;;;;;;;;22.20;60.10;;;;;;6280237;28;20496;-73
2023/06/14 14:08:52;;;;;;;;;;;22.20;60.10;;;;;;6294330;28;19909;-73
2023/06/14 14:11:53;;;;;;;;;;;22.20;60.20;;;;;;6279416;28;19920;-73
2023/06/14 14:14:53;;;;;;;;;;;22.20;60.20;;;;;;6294038;28;20397;-74
2023/06/14 14:17:57;;;;;;;;;;;22.20;60.20;;;;;;6294226;28;19915;-73
2023/06/14 14:20:58;;;;;;;;;;;22.20;60.20;;;;;;6294251;28;19912;-73
2023/06/14 14:23:58;;;;;;;;;;;22.20;60.20;;;;;;6294261;28;19916;-73
2023/06/14 14:27:00;;;;;;;;;;;22.20;60.20;;;;;;6296264;28;20021;-73
2023/06/14 14:30:00;;;;;;;;;;;22.20;60.20;;;;;;6278301;28;19908;-72
2023/06/14 14:33:01;;;;;;;;;;;22.20;60.10;;;;;;6294800;28;20245;-73
2023/06/14 14:36:03;;;;;;;;;;;22.20;60.30;;;;;;6281023;28;19969;-73
2023/06/14 14:39:04;;;;;;;;;;;22.20;60.20;;;;;;6298609;28;19915;-72
2023/06/14 14:42:05;;;;;;;;;;;22.10;60.20;;;;;;6298430;28;20410;-73
2023/06/14 14:45:06;;;;;;;;;;;22.10;60.20;;;;;;6298410;28;20371;-73
2023/06/14 14:48:06;;;;;;;;;;;22.10;60.30;;;;;;6297662;28;19915;-73
2023/06/14 14:51:07;;;;;;;;;;;22.10;60.30;;;;;;6298298;28;19909;-74
2023/06/14 14:54:07;;;;;;;;;;;22.10;60.40;;;;;;6297810;28;19958;-73
2023/06/14 14:57:08;;;;;;;;;;;22.10;60.40;;;;;;6297760;28;20030;-73
2023/06/14 15:00:09;;;;;;;;;;;22.10;60.40;;;;;;6270638;28;19991;-73
2023/06/14 15:03:09;;;;;;;;;;;22.10;60.40;;;;;;6293965;28;20305;-71
2023/06/14 15:06:10;;;;;;;;;;;22.10;60.50;;;;;;6297037;28;19916;-72
2023/06/14 15:09:10;;;;;;;;;;;22.10;60.70;;;;;;6274209;28;19909;-73
2023/06/14 15:12:11;;;;;;;;;;;22.10;60.60;;;;;;6285853;28;19932;-73
2023/06/14 15:15:11;;;;;;;;;;;22.40;60.00;;;;;;6281962;28;20394;-73
2023/06/14 15:18:12;;;;;;;;;;;22.40;59.80;;;;;;6297063;28;19917;-73
2023/06/14 15:21:12;;;;;;;;;;;22.50;59.70;;;;;;6295428;28;19915;-74
2023/06/14 15:24:13;;;;;;;;;;;22.50;60.00;;;;;;6300446;28;19987;-74
2023/06/14 15:27:13;;;;;;;;;;;22.50;60.30;;;;;;6297286;28;19909;-74
2023/06/14 15:30:14;;;;;;;;;;;22.50;60.00;;;;;;6285770;28;20003;-73
2023/06/14 15:33:14;;;;;;;;;;;22.40;60.10;;;;;;6289904;28;20119;-74
2023/06/14 15:36:15;;;;;;;;;;;22.40;60.30;;;;;;6278760;28;19921;-74
2023/06/14 15:39:15;;;;;;;;;;;22.30;60.20;;;;;;6294851;28;19916;-74
2023/06/14 15:42:16;;;;;;;;;;;22.30;60.30;;;;;;6296082;28;19934;-73
2023/06/14 15:45:16;;;;;;;;;;;22.30;60.20;;;;;;6287218;28;19916;-73
2023/06/14 15:48:17;;;;;;;;;;;22.30;60.20;;;;;;6289046;28;19956;-73
2023/06/14 15:51:17;;;;;;;;;;;22.30;60.20;;;;;;6279495;28;19935;-73
2023/06/14 15:54:18;;;;;;;;;;;22.30;60.10;;;;;;6295537;28;20344;-72
2023/06/14 15:57:18;;;;;;;;;;;22.40;60.10;;;;;;6294799;28;19951;-73
2023/06/14 16:00:20;;;;;;;;;;;22.40;60.10;;;;;;6286654;28;19970;-73
2023/06/14 16:03:21;;;;;;;;;;;22.30;60.00;;;;;;6283099;28;19982;-73
2023/06/14 16:06:21;;;;;;;;;;;22.30;60.10;;;;;;6291310;28;19920;-74
2023/06/14 16:09:23;;;;;;;;;;;22.30;60.10;;;;;;6291813;28;20018;-73
2023/06/14 16:12:23;;;;;;;;;;;22.30;60.10;;;;;;6292001;28;19919;-73
2023/06/14 16:15:24;;;;;;;;;;;22.30;60.10;;;;;;6291719;28;20267;-73
2023/06/14 16:18:24;;;;;;;;;;;22.30;60.10;;;;;;6289604;28;19923;-73
2023/06/14 16:21:26;;;;;;;;;;;22.30;60.10;;;;;;6289030;28;20019;-73
2023/06/14 16:24:26;;;;;;;;;;;22.30;60.00;;;;;;6290147;28;19908;-73
2023/06/14 16:27:27;;;;;;;;;;;22.30;60.10;;;;;;6289524;28;19955;-73
2023/06/14 16:30:27;;;;;;;;;;;22.30;60.10;;;;;;6288809;28;19912;-73
2023/06/14 16:33:28;;;;;;;;;;;22.30;60.10;;;;;;6290186;28;19908;-72
2023/06/14 16:36:28;;;;;;;;;;;22.30;60.10;;;;;;6288748;28;19928;-72
2023/06/14 16:39:29;;;;;;;;;;;22.30;60.20;;;;;;6290055;28;19912;-73
2023/06/14 16:42:29;;;;;;;;;;;22.20;60.00;;;;;;6289097;28;19919;-73
2023/06/14 16:45:30;;;;;;;;;;;22.30;60.10;;;;;;6289832;28;20037;-72
2023/06/14 16:48:30;;;;;;;;;;;22.30;60.10;;;;;;6288287;28;20375;-73
2023/06/14 16:51:31;;;;;;;;;;;22.30;60.00;;;;;;6289274;28;20399;-73
2023/06/14 16:54:31;;;;;;;;;;;22.20;59.90;;;;;;6289273;28;19920;-72
2023/06/14 16:57:32;;;;;;;;;;;22.20;59.90;;;;;;6288454;28;19912;-73
2023/06/14 17:00:32;;;;;;;;;;;22.20;60.10;;;;;;6289105;28;20294;-73
2023/06/14 17:03:33;;;;;;;;;;;22.20;60.00;;;;;;6286232;28;19920;-72
2023/06/14 17:06:35;;;;;;;;;;;22.30;60.10;;;;;;6284768;28;19919;-72
2023/06/14 17:09:35;;;;;;;;;;;22.30;60.00;;;;;;6288203;28;20374;-72
2023/06/14 17:12:36;;;;;;;;;;;22.30;59.90;;;;;;6289169;28;19912;-72
2023/06/14 17:15:36;;;;;;;;;;;22.30;60.00;;;;;;6287965;28;20271;-72
2023/06/14 17:18:36;;;;;;;;;;;22.20;60.00;;;;;;6274881;28;19917;-72
2023/06/14 17:21:37;;;;;;;;;;;22.20;60.00;;;;;;6285389;28;19913;-73
2023/06/14 17:24:37;;;;;;;;;;;22.20;60.00;;;;;;6279313;28;20371;-72
2023/06/14 17:27:38;;;;;;;;;;;22.30;60.10;;;;;;6272362;28;20363;-72
2023/06/14 17:30:38;;;;;;;;;;;22.20;60.10;;;;;;6289836;28;19908;-72
2023/06/14 17:33:39;;;;;;;;;;;22.20;60.10;;;;;;6291017;28;20454;-73
2023/06/14 17:36:39;;;;;;;;;;;22.20;60.20;;;;;;6289187;28;19916;-73